Time;durP1;ratioP1;P1;durP2;ratioP2;P2;SDS_P1;SDS_P2;PMS_P1;PMS_P2;Temp;Humidity;BMP_temperature;BMP_pressure;BME280_temperature;BME280_humidity;BME280_pressure;Samples;Min_cycle;Max_cycle;Signal;HPM_P1;HPM_P2
2022/01/14 05:01:03;;;;;;;63.38;27.88;;;-2.70;99.90;;;;;;5707515;22;92285;-73
2022/01/14 05:03:30;;;;;;;65.50;29.25;;;-2.70;99.90;;;;;;5017555;28;90033;-73
2022/01/14 05:05:58;;;;;;;59.40;27.73;;;-2.60;99.90;;;;;;5018291;28;89496;-74
2022/01/14 05:08:30;;;;;;;57.90;27.77;;;-2.70;99.90;;;;;;5018124;28;89594;-73
2022/01/14 05:13:23;;;;;;;55.30;26.33;;;-2.90;99.90;;;;;;5013289;22;89544;-75
2022/01/14 05:15:50;;;;;;;51.70;24.20;;;-3.10;99.90;;;;;;5000234;28;90171;-75
2022/01/14 05:18:15;;;;;;;54.72;24.95;;;-3.10;99.90;;;;;;5002143;28;89827;-74
2022/01/14 05:20:41;;;;;;;46.90;23.55;;;-3.10;99.90;;;;;;5001667;28;90052;-75
2022/01/14 05:23:07;;;;;;;56.95;26.15;;;-3.20;99.90;;;;;;5001491;28;89272;-75
2022/01/14 05:25:32;;;;;;;53.08;26.23;;;-3.10;99.90;;;;;;4980890;28;89277;-75
2022/01/14 05:27:58;;;;;;;51.25;25.45;;;-3.10;99.90;;;;;;4979358;28;91169;-76
2022/01/14 05:30:24;;;;;;;52.20;25.58;;;-3.10;99.90;;;;;;4981884;28;89330;-75
2022/01/14 05:32:53;;;;;;;59.17;28.17;;;-3.20;99.90;;;;;;4979947;28;91253;-76
2022/01/14 05:35:21;;;;;;;61.10;28.63;;;-3.20;99.90;;;;;;4978428;28;89295;-76
2022/01/14 05:37:47;;;;;;;57.75;27.85;;;-3.00;99.90;;;;;;4977557;28;90192;-75
2022/01/14 05:40:14;;;;;;;59.65;28.02;;;-2.90;99.90;;;;;;4975725;28;92574;-75
2022/01/14 05:42:40;;;;;;;55.67;26.92;;;-2.90;99.90;;;;;;4977025;28;90764;-76
2022/01/14 05:45:08;;;;;;;52.58;26.25;;;-2.90;99.90;;;;;;4976031;28;89688;-76
2022/01/14 05:47:35;;;;;;;54.55;25.92;;;-2.80;99.90;;;;;;4977456;28;91859;-76
2022/01/14 05:50:01;;;;;;;50.83;25.25;;;-2.90;99.90;;;;;;4975884;28;90009;-76
2022/01/14 05:52:26;;;;;;;53.72;25.63;;;-2.90;99.90;;;;;;4976466;28;89989;-76
2022/01/14 05:54:53;;;;;;;52.45;25.35;;;-3.00;99.90;;;;;;4977370;28;89689;-76
2022/01/14 05:57:20;;;;;;;50.05;24.73;;;-3.10;99.90;;;;;;4976588;28;89091;-76
2022/01/14 05:59:46;;;;;;;56.08;25.10;;;-3.00;99.90;;;;;;4974746;28;89983;-75
2022/01/14 06:02:12;;;;;;;52.80;25.95;;;-3.00;99.90;;;;;;4970767;28;90254;-75
2022/01/14 06:04:37;;;;;;;56.22;27.80;;;-3.10;99.90;;;;;;4956695;28;90375;-76
2022/01/14 06:07:03;;;;;;;56.50;27.88;;;-3.10;99.90;;;;;;4958133;28;89318;-77
2022/01/14 06:09:29;;;;;;;58.05;27.95;;;-2.90;99.90;;;;;;4957866;28;89842;-76
2022/01/14 06:11:55;;;;;;;56.30;26.85;;;-3.00;99.90;;;;;;4957921;28;89294;-76
2022/01/14 06:14:20;;;;;;;57.58;26.70;;;-3.10;99.90;;;;;;4962461;28;89360;-76
2022/01/14 06:16:46;;;;;;;52.35;26.00;;;-3.20;99.90;;;;;;4977260;28;89976;-76
2022/01/14 06:19:12;;;;;;;51.60;25.65;;;-3.30;99.90;;;;;;4966877;28;89387;-76
2022/01/14 06:21:38;;;;;;;52.63;26.35;;;-3.30;99.90;;;;;;4957922;28;90139;-77
2022/01/14 06:24:04;;;;;;;54.20;27.13;;;-3.40;99.90;;;;;;4963517;28;90463;-76
2022/01/14 06:26:29;;;;;;;55.60;27.10;;;-3.40;99.90;;;;;;4977882;28;89696;-76
2022/01/14 06:28:55;;;;;;;55.47;26.83;;;-3.30;99.90;;;;;;4977227;28;90560;-77
2022/01/14 06:31:20;;;;;;;50.83;26.13;;;-3.20;99.90;;;;;;4977323;28;91199;-77
2022/01/14 06:33:46;;;;;;;51.63;26.25;;;-3.30;99.90;;;;;;4972350;28;89605;-76
2022/01/14 06:36:13;;;;;;;54.95;26.58;;;-3.30;99.90;;;;;;4967128;28;89923;-77
2022/01/14 06:38:38;;;;;;;51.92;25.17;;;-3.30;99.90;;;;;;4977677;28;89244;-76
2022/01/14 06:41:04;;;;;;;55.00;26.83;;;-3.30;99.90;;;;;;4966875;28;89416;-76
2022/01/14 06:43:30;;;;;;;55.75;26.88;;;-3.30;99.90;;;;;;4966360;28;89463;-76
2022/01/14 06:45:55;;;;;;;60.47;28.27;;;-3.30;99.90;;;;;;4975353;28;89795;-76
2022/01/14 06:48:21;;;;;;;56.25;27.73;;;-3.30;99.90;;;;;;4967273;28;89274;-76
2022/01/14 06:50:47;;;;;;;54.08;27.02;;;-3.30;99.90;;;;;;4965296;28;92266;-77
2022/01/14 06:53:13;;;;;;;54.85;27.02;;;-3.30;99.90;;;;;;4956505;28;90452;-77
2022/01/14 06:55:38;;;;;;;53.08;27.23;;;-3.30;99.90;;;;;;4957351;28;89438;-76
2022/01/14 06:58:03;;;;;;;58.25;28.45;;;-3.20;99.90;;;;;;4975339;28;90086;-76
2022/01/14 07:00:30;;;;;;;52.50;27.85;;;-3.10;99.90;;;;;;4977852;28;89371;-77
2022/01/14 07:02:55;;;;;;;55.03;27.17;;;-3.10;99.90;;;;;;4977442;28;89367;-76
2022/01/14 07:05:21;;;;;;;55.75;29.42;;;-3.20;99.90;;;;;;4975573;28;92121;-76
2022/01/14 07:07:46;;;;;;;54.72;28.80;;;-3.20;99.90;;;;;;4975244;28;91563;-76
2022/01/14 07:10:12;;;;;;;53.88;27.38;;;-3.10;99.90;;;;;;4976108;28;92631;-76
2022/01/14 07:12:41;;;;;;;53.25;28.10;;;-3.20;99.90;;;;;;4978519;28;89261;-76
2022/01/14 07:15:10;;;;;;;60.45;29.40;;;-3.30;99.90;;;;;;4980080;28;89620;-76
2022/01/14 07:17:37;;;;;;;58.15;27.73;;;-3.30;99.90;;;;;;4968287;28;91091;-77
2022/01/14 07:20:07;;;;;;;54.05;27.08;;;-3.30;99.90;;;;;;4960766;28;90906;-77
2022/01/14 07:22:33;;;;;;;54.92;27.75;;;-3.30;99.90;;;;;;4960354;28;89790;-77
2022/01/14 07:24:59;;;;;;;80.68;42.80;;;-3.30;99.90;;;;;;4960507;28;89235;-76
2022/01/14 07:27:25;;;;;;;62.50;30.60;;;-3.20;99.90;;;;;;4962803;28;89323;-76
2022/01/14 07:29:51;;;;;;;56.92;26.23;;;-3.20;99.90;;;;;;4978277;28;89635;-76
2022/01/14 07:32:16;;;;;;;50.35;26.00;;;-3.00;99.90;;;;;;4979842;28;91450;-77
2022/01/14 07:34:42;;;;;;;57.95;26.67;;;-3.00;99.90;;;;;;4979936;28;89003;-76
2022/01/14 07:37:07;;;;;;;58.28;29.08;;;-2.90;99.90;;;;;;4980380;28;90030;-77
2022/01/14 07:39:33;;;;;;;60.55;29.85;;;-2.80;99.90;;;;;;4992541;28;90181;-77
2022/01/14 07:41:58;;;;;;;61.35;30.58;;;-2.70;99.90;;;;;;5003155;28;90130;-75
2022/01/14 07:44:24;;;;;;;60.30;30.20;;;-2.60;99.90;;;;;;4989689;28;89147;-76
2022/01/14 07:46:50;;;;;;;65.45;29.90;;;-2.60;99.90;;;;;;4979770;28;89839;-76
2022/01/14 07:49:16;;;;;;;60.38;27.95;;;-2.50;99.90;;;;;;4979734;28;89074;-76
2022/01/14 07:51:41;;;;;;;54.53;27.30;;;-2.50;99.90;;;;;;4979285;28;89208;-76
2022/01/14 07:54:08;;;;;;;59.58;29.02;;;-2.50;99.90;;;;;;4977181;28;98692;-76
2022/01/14 07:56:35;;;;;;;58.08;27.42;;;-2.40;99.90;;;;;;4979421;28;90123;-76
2022/01/14 07:59:02;;;;;;;54.55;26.48;;;-2.40;99.90;;;;;;4979287;28;93104;-76
2022/01/14 08:01:28;;;;;;;51.95;25.10;;;-2.40;99.90;;;;;;4977941;28;89275;-76
2022/01/14 08:03:54;;;;;;;53.75;26.92;;;-2.40;99.90;;;;;;4978729;28;89308;-76
2022/01/14 08:06:22;;;;;;;52.95;27.27;;;-2.40;99.90;;;;;;4978727;28;91067;-76
2022/01/14 08:08:47;;;;;;;53.38;25.85;;;-2.40;99.90;;;;;;4979223;28;89539;-76
2022/01/14 08:11:13;;;;;;;45.33;23.95;;;-2.40;99.90;;;;;;4979421;28;89246;-76
2022/01/14 08:13:38;;;;;;;46.95;23.55;;;-2.40;99.90;;;;;;4977738;28;95792;-76
2022/01/14 08:16:04;;;;;;;49.40;24.13;;;-2.40;99.90;;;;;;4979115;28;89348;-76
2022/01/14 08:18:30;;;;;;;49.95;25.27;;;-2.40;99.90;;;;;;4979415;28;89633;-76
2022/01/14 08:20:56;;;;;;;50.25;25.15;;;-2.20;99.90;;;;;;4979428;28;89211;-76
2022/01/14 08:23:25;;;;;;;51.80;25.73;;;-2.20;99.90;;;;;;4979179;28;89679;-76
2022/01/14 08:25:53;;;;;;;50.08;25.05;;;-2.20;99.90;;;;;;4979406;28;89405;-76
2022/01/14 08:28:22;;;;;;;48.65;23.80;;;-2.10;99.90;;;;;;4979129;28;89187;-77
2022/01/14 08:30:48;;;;;;;50.85;25.42;;;-2.10;99.90;;;;;;4978542;28;90130;-75
2022/01/14 08:33:13;;;;;;;50.13;26.50;;;-2.00;99.90;;;;;;4978441;28;89179;-76
2022/01/14 08:35:40;;;;;;;51.22;28.45;;;-2.00;99.90;;;;;;4979057;28;89820;-76
2022/01/14 08:38:06;;;;;;;65.45;31.90;;;-1.90;99.90;;;;;;4978818;28;89111;-77
2022/01/14 08:40:32;;;;;;;66.80;33.15;;;-1.90;99.90;;;;;;4980577;28;89218;-74
2022/01/14 08:42:58;;;;;;;56.78;30.40;;;-1.80;99.90;;;;;;4979168;28;89396;-74
2022/01/14 08:45:24;;;;;;;55.97;29.42;;;-1.80;99.90;;;;;;4978590;28;90198;-74
2022/01/14 08:47:53;;;;;;;54.63;28.08;;;-1.70;99.90;;;;;;4977829;28;92464;-75
2022/01/14 08:50:38;;;;;;;54.90;28.15;;;-1.60;99.90;;;;;;4978767;28;89678;-75
2022/01/14 08:53:08;;;;;;;57.03;29.30;;;-1.60;99.90;;;;;;4978757;28;89198;-74
2022/01/14 08:55:35;;;;;;;57.83;29.65;;;-1.60;99.90;;;;;;4977841;28;91116;-75
2022/01/14 08:58:01;;;;;;;58.67;30.67;;;-1.50;99.90;;;;;;4979043;28;89854;-76
2022/01/14 09:00:27;;;;;;;55.75;29.58;;;-1.50;99.90;;;;;;4978885;28;89355;-76
2022/01/14 09:02:54;;;;;;;58.63;30.40;;;-1.50;99.90;;;;;;4977859;28;89335;-77
2022/01/14 09:05:20;;;;;;;56.25;29.63;;;-1.40;99.90;;;;;;4978266;28;90603;-76
2022/01/14 09:07:46;;;;;;;56.92;29.27;;;-1.40;99.90;;;;;;4978563;28;89185;-76
2022/01/14 09:10:11;;;;;;;53.85;29.77;;;-1.30;99.90;;;;;;4978120;28;89246;-76
2022/01/14 09:12:37;;;;;;;53.13;28.73;;;-1.30;99.90;;;;;;4978301;28;89705;-76
2022/01/14 09:15:04;;;;;;;56.13;29.95;;;-1.20;99.90;;;;;;4977354;28;90991;-76
2022/01/14 09:17:30;;;;;;;54.30;30.20;;;-1.20;99.90;;;;;;4977963;28;89671;-76
2022/01/14 09:19:56;;;;;;;54.58;30.65;;;-1.10;99.90;;;;;;4977844;28;90102;-76
2022/01/14 09:22:22;;;;;;;54.10;30.90;;;-1.00;99.90;;;;;;4977923;28;89629;-74
2022/01/14 09:24:48;;;;;;;53.38;30.38;;;-0.90;99.90;;;;;;4976105;28;91662;-74
2022/01/14 09:27:15;;;;;;;54.33;29.75;;;-0.90;99.90;;;;;;4977855;28;90054;-74
2022/01/14 09:29:42;;;;;;;52.33;28.77;;;-0.80;99.90;;;;;;4978007;28;89264;-75
2022/01/14 09:32:08;;;;;;;52.70;29.65;;;-0.70;99.90;;;;;;4977263;28;92837;-75
2022/01/14 09:34:34;;;;;;;53.67;30.52;;;-0.60;99.90;;;;;;4977739;28;89310;-75
2022/01/14 09:37:00;;;;;;;57.58;31.13;;;-0.50;99.90;;;;;;4976811;28;93220;-75
2022/01/14 09:39:26;;;;;;;53.97;30.10;;;-0.40;99.90;;;;;;4978099;28;89361;-75
2022/01/14 09:41:52;;;;;;;52.70;29.63;;;-0.30;99.90;;;;;;4978016;28;89718;-75
2022/01/14 09:44:18;;;;;;;53.53;29.65;;;-0.20;99.90;;;;;;4976685;28;91159;-75
2022/01/14 09:46:48;;;;;;;56.85;31.05;;;-0.10;99.90;;;;;;4977435;28;90921;-75
2022/01/14 09:49:14;;;;;;;53.25;30.75;;;0.00;99.90;;;;;;4976228;28;89378;-75
2022/01/14 09:51:40;;;;;;;54.58;30.73;;;0.10;99.90;;;;;;4977555;28;89361;-75
2022/01/14 09:54:06;;;;;;;54.38;31.45;;;0.20;99.90;;;;;;4977153;28;90520;-75
2022/01/14 09:56:32;;;;;;;53.13;31.42;;;0.20;99.90;;;;;;4977413;28;89688;-75
2022/01/14 09:58:58;;;;;;;53.92;30.17;;;0.30;99.90;;;;;;4976799;28;89296;-76
2022/01/14 10:01:24;;;;;;;51.83;30.00;;;0.30;99.90;;;;;;4981249;28;89825;-76
2022/01/14 10:03:55;;;;;;;49.95;29.25;;;0.40;99.90;;;;;;4980488;28;89196;-76
2022/01/14 10:06:44;;;;;;;51.78;28.90;;;0.40;99.90;;;;;;4979531;28;92644;-76
2022/01/14 10:09:21;;;;;;;51.72;29.92;;;0.50;99.90;;;;;;4978613;28;90140;-77
2022/01/14 10:12:06;;;;;;;58.97;32.38;;;0.50;99.90;;;;;;4979517;28;89257;-76
2022/01/14 10:14:34;;;;;;;51.75;31.70;;;0.60;99.90;;;;;;4974063;28;89802;-77
2022/01/14 10:17:02;;;;;;;52.50;30.25;;;0.60;99.90;;;;;;4975839;28;91162;-76
2022/01/14 10:19:33;;;;;;;50.45;29.50;;;0.70;99.90;;;;;;4963949;28;89258;-74
2022/01/14 10:21:59;;;;;;;48.33;29.08;;;0.90;99.90;;;;;;4971043;28;92409;-75
2022/01/14 10:24:29;;;;;;;48.17;28.85;;;0.90;99.90;;;;;;4979787;28;89352;-75
2022/01/14 10:26:57;;;;;;;49.85;29.00;;;0.90;99.90;;;;;;4972686;28;89047;-74
2022/01/14 10:29:38;;;;;;;48.78;28.45;;;1.00;99.90;;;;;;4973514;28;89336;-74
2022/01/14 10:32:06;;;;;;;49.10;28.75;;;1.10;99.90;;;;;;4969198;28;89226;-75
2022/01/14 10:34:32;;;;;;;46.10;28.67;;;1.20;99.90;;;;;;4978173;28;92907;-75
2022/01/14 10:37:08;;;;;;;47.20;28.95;;;1.20;99.90;;;;;;4977614;28;90729;-75
2022/01/14 10:39:41;;;;;;;46.38;28.77;;;1.30;99.90;;;;;;4980951;28;89301;-76
2022/01/14 10:42:22;;;;;;;45.30;28.08;;;1.40;99.90;;;;;;4980788;28;91943;-75
2022/01/14 10:44:48;;;;;;;43.80;26.75;;;1.50;99.90;;;;;;4983350;28;89289;-75
2022/01/14 10:47:24;;;;;;;47.40;27.80;;;1.50;99.90;;;;;;4992885;28;89291;-75
2022/01/14 10:49:55;;;;;;;45.28;27.40;;;1.60;99.90;;;;;;5001355;28;88795;-74
2022/01/14 10:52:23;;;;;;;42.00;26.98;;;1.60;99.90;;;;;;4982282;28;89010;-76
2022/01/14 10:54:51;;;;;;;51.40;28.08;;;1.70;99.90;;;;;;4974689;28;89316;-75
2022/01/14 10:57:23;;;;;;;46.55;26.52;;;1.80;99.90;;;;;;4971774;28;91822;-75
2022/01/14 10:59:54;;;;;;;42.30;25.65;;;1.80;99.90;;;;;;4975686;28;90019;-75
2022/01/14 11:02:37;;;;;;;40.42;25.38;;;1.90;99.90;;;;;;4972530;28;89322;-74
2022/01/14 11:05:15;;;;;;;41.30;24.35;;;2.00;99.90;;;;;;4973157;28;90778;-76
2022/01/14 11:07:42;;;;;;;35.28;22.73;;;2.10;99.90;;;;;;4980062;28;89344;-75
2022/01/14 11:10:14;;;;;;;37.83;21.75;;;2.30;99.90;;;;;;4981906;28;89313;-76
2022/01/14 11:12:41;;;;;;;35.30;21.75;;;2.40;99.90;;;;;;4977280;28;90291;-75
2022/01/14 11:15:08;;;;;;;36.83;23.13;;;2.40;99.90;;;;;;5010824;22;90199;-73
2022/01/14 11:17:36;;;;;;;37.67;24.00;;;2.60;99.90;;;;;;4998159;28;91795;-73
2022/01/14 11:20:04;;;;;;;38.83;24.33;;;2.60;99.90;;;;;;4985677;28;89217;-74
2022/01/14 11:25:14;;;;;;;36.47;22.88;;;2.70;99.90;;;;;;4968335;28;90356;-73
2022/01/14 11:27:46;;;;;;;37.45;22.73;;;2.80;99.90;;;;;;4959659;28;91117;-73
2022/01/14 11:30:13;;;;;;;37.30;23.27;;;2.80;99.90;;;;;;4960698;28;89228;-73
2022/01/14 11:32:51;;;;;;;34.95;22.00;;;2.90;99.90;;;;;;4960452;28;90938;-74
2022/01/14 11:35:25;;;;;;;34.80;22.05;;;2.90;99.90;;;;;;4961453;28;91369;-73
2022/01/14 11:37:51;;;;;;;35.42;22.02;;;2.90;99.90;;;;;;4961320;28;91302;-73
2022/01/14 11:40:18;;;;;;;40.05;24.05;;;3.00;99.90;;;;;;4974718;28;89390;-74
2022/01/14 11:42:50;;;;;;;35.97;23.05;;;3.00;99.90;;;;;;4985286;28;88959;-76
2022/01/14 11:45:43;;;;;;;40.03;23.48;;;3.10;99.90;;;;;;4965343;28;90616;-75
2022/01/14 11:48:31;;;;;;;33.80;21.38;;;3.20;99.90;;;;;;4980512;28;91912;-74
2022/01/14 11:51:09;;;;;;;34.25;21.77;;;3.30;99.90;;;;;;4957843;28;90413;-74
2022/01/14 11:53:47;;;;;;;32.72;21.52;;;3.40;99.90;;;;;;4959416;28;92064;-73
2022/01/14 11:56:31;;;;;;;34.35;22.20;;;3.50;99.90;;;;;;4972258;28;89161;-76
2022/01/14 11:59:17;;;;;;;31.38;21.17;;;3.60;99.90;;;;;;4964606;28;89178;-74
2022/01/14 12:01:44;;;;;;;33.40;21.75;;;3.70;99.90;;;;;;4955121;28;89480;-73
2022/01/14 12:04:09;;;;;;;35.13;21.38;;;3.80;99.90;;;;;;4966409;28;91175;-73
2022/01/14 12:06:50;;;;;;;31.70;20.92;;;3.90;99.90;;;;;;4972479;28;92677;-73
2022/01/14 12:09:21;;;;;;;31.90;22.65;;;4.00;99.90;;;;;;4973859;28;89893;-73
2022/01/14 12:12:29;;;;;;;33.92;22.58;;;4.00;99.90;;;;;;4971997;28;89416;-72
2022/01/14 12:15:00;;;;;;;33.50;21.63;;;4.00;99.90;;;;;;4977176;28;90213;-73
2022/01/14 12:17:36;;;;;;;41.97;22.40;;;4.10;99.90;;;;;;4961264;28;90248;-73
2022/01/14 12:20:13;;;;;;;35.30;22.70;;;4.20;99.90;;;;;;4962523;28;93179;-73
2022/01/14 12:22:40;;;;;;;36.20;21.13;;;4.20;99.90;;;;;;4966268;28;89355;-73
2022/01/14 12:25:07;;;;;;;30.38;21.38;;;4.40;99.90;;;;;;4967065;28;89637;-73
2022/01/14 12:27:43;;;;;;;38.17;23.23;;;4.40;99.90;;;;;;4967332;28;91874;-72
2022/01/14 12:30:10;;;;;;;33.33;21.70;;;4.50;99.90;;;;;;4968087;28;89698;-72
2022/01/14 12:32:39;;;;;;;35.97;22.17;;;4.60;99.90;;;;;;4967953;28;89398;-73
2022/01/14 12:35:13;;;;;;;44.28;26.23;;;4.60;99.90;;;;;;4969112;28;89643;-73
2022/01/14 12:37:46;;;;;;;30.33;20.45;;;4.70;99.90;;;;;;4966890;28;90219;-73
2022/01/14 12:40:13;;;;;;;34.75;22.73;;;4.80;99.90;;;;;;4964553;28;90049;-73
2022/01/14 12:42:40;;;;;;;35.35;21.48;;;4.80;99.90;;;;;;4973053;28;90154;-73
2022/01/14 12:45:10;;;;;;;36.63;21.05;;;4.80;99.90;;;;;;4977250;28;91117;-73
2022/01/14 12:47:40;;;;;;;32.10;21.27;;;4.90;99.90;;;;;;4978115;28;90581;-74
2022/01/14 12:50:11;;;;;;;32.15;21.20;;;4.90;99.90;;;;;;4972648;28;89440;-73
2022/01/14 12:52:49;;;;;;;32.63;20.48;;;5.00;99.90;;;;;;4973163;28;89749;-73
2022/01/14 12:55:16;;;;;;;36.17;21.55;;;5.10;99.90;;;;;;4964396;28;89403;-72
2022/01/14 12:57:42;;;;;;;30.75;20.65;;;5.10;99.90;;;;;;4976768;28;92014;-74
2022/01/14 13:00:10;;;;;;;32.22;21.40;;;5.10;99.90;;;;;;4963492;28;90070;-75
2022/01/14 13:02:36;;;;;;;27.85;19.92;;;5.10;99.90;;;;;;4961523;28;89317;-78
2022/01/14 13:05:16;;;;;;;30.13;19.13;;;5.20;99.90;;;;;;4973442;28;91980;-76
2022/01/14 13:07:43;;;;;;;32.05;20.05;;;5.20;99.90;;;;;;4976781;28;91712;-76
2022/01/14 13:10:11;;;;;;;31.05;20.10;;;5.20;99.90;;;;;;4958629;28;92018;-76
2022/01/14 13:12:40;;;;;;;32.78;19.80;;;5.30;99.90;;;;;;4957297;28;89650;-76
2022/01/14 13:15:13;;;;;;;28.15;19.60;;;5.30;99.90;;;;;;4975581;28;91671;-75
2022/01/14 13:17:49;;;;;;;31.27;20.63;;;5.30;99.90;;;;;;4982926;28;89979;-78
2022/01/14 13:20:16;;;;;;;31.48;18.42;;;5.30;99.90;;;;;;4978108;28;89126;-76
2022/01/14 13:22:45;;;;;;;27.67;19.30;;;5.30;99.90;;;;;;4972359;28;89308;-75
2022/01/14 13:25:33;;;;;;;26.85;18.55;;;5.20;99.90;;;;;;4981917;28;88666;-76
2022/01/14 13:28:01;;;;;;;29.35;19.05;;;5.20;99.90;;;;;;4983859;28;90149;-76
2022/01/14 13:30:37;;;;;;;28.02;17.60;;;5.20;99.90;;;;;;4980046;28;94653;-77
2022/01/14 13:33:08;;;;;;;24.77;16.58;;;5.30;99.90;;;;;;4977637;28;91257;-78
2022/01/14 13:35:40;;;;;;;27.52;17.23;;;5.40;99.90;;;;;;4974361;28;89478;-77
2022/01/14 13:38:11;;;;;;;28.70;16.60;;;5.40;99.90;;;;;;4975325;28;92201;-78
2022/01/14 13:40:47;;;;;;;27.38;17.98;;;5.30;99.90;;;;;;4974237;28;90207;-77
2022/01/14 13:43:16;;;;;;;28.05;19.17;;;5.30;99.90;;;;;;4969407;28;89247;-77
2022/01/14 13:45:46;;;;;;;30.48;19.35;;;5.30;99.90;;;;;;4967052;28;93132;-77
2022/01/14 13:48:27;;;;;;;27.23;18.58;;;5.30;99.90;;;;;;4969382;28;89301;-77
2022/01/14 13:50:55;;;;;;;26.80;18.30;;;5.30;99.90;;;;;;4966454;28;91352;-77
2022/01/14 13:53:27;;;;;;;29.58;17.55;;;5.30;99.90;;;;;;4966951;28;89311;-76
2022/01/14 13:55:56;;;;;;;28.67;17.60;;;5.30;99.90;;;;;;4965732;28;91742;-77
2022/01/14 13:58:27;;;;;;;26.83;18.85;;;5.30;99.90;;;;;;4963969;28;92681;-76
2022/01/14 14:00:57;;;;;;;24.95;17.95;;;5.30;99.90;;;;;;4958123;28;90667;-77
2022/01/14 14:03:36;;;;;;;27.85;19.10;;;5.30;99.90;;;;;;4957019;28;89392;-77
2022/01/14 14:06:11;;;;;;;33.05;19.73;;;5.30;99.90;;;;;;4958164;28;89765;-77
2022/01/14 14:08:46;;;;;;;30.75;18.15;;;5.20;99.90;;;;;;4958657;28;92070;-77
2022/01/14 14:16:57;;;;;;;30.17;19.33;;;5.30;99.90;;;;;;4961581;28;88795;-77
2022/01/14 14:19:24;;;;;;;33.13;20.40;;;5.30;99.90;;;;;;4961495;28;90183;-79
2022/01/14 14:22:06;;;;;;;31.83;20.30;;;5.20;99.90;;;;;;4961726;28;89919;-79
2022/01/14 14:24:32;;;;;;;29.45;19.48;;;5.20;99.90;;;;;;4957981;28;90198;-75
2022/01/14 14:27:09;;;;;;;30.02;20.15;;;5.10;99.90;;;;;;4957737;28;89193;-76
2022/01/14 14:29:34;;;;;;;31.45;20.35;;;5.10;99.90;;;;;;4957873;28;89343;-75
2022/01/14 14:32:26;;;;;;;34.40;22.27;;;5.10;99.90;;;;;;4958814;28;89256;-75
2022/01/14 14:34:57;;;;;;;36.45;22.73;;;5.00;99.90;;;;;;4959032;28;89157;-79
2022/01/14 14:37:22;;;;;;;38.22;22.52;;;5.00;99.90;;;;;;4956708;28;93064;-76
2022/01/14 14:39:48;;;;;;;36.05;23.60;;;5.00;99.90;;;;;;4957048;28;92920;-76
2022/01/14 14:42:14;;;;;;;34.88;22.42;;;5.00;99.90;;;;;;4960064;28;88930;-79
2022/01/14 14:44:39;;;;;;;40.00;22.25;;;4.90;99.90;;;;;;4956438;28;89275;-77
2022/01/14 14:47:07;;;;;;;31.67;22.20;;;4.90;99.90;;;;;;4961180;28;91979;-79
2022/01/14 14:49:34;;;;;;;32.65;22.23;;;4.80;99.90;;;;;;4965580;28;91124;-77
2022/01/14 14:51:59;;;;;;;38.17;22.58;;;4.80;99.90;;;;;;4967523;28;93574;-79
2022/01/14 14:54:25;;;;;;;32.13;21.77;;;4.70;99.90;;;;;;4965170;28;89234;-78
2022/01/14 14:56:51;;;;;;;33.58;23.15;;;4.60;99.90;;;;;;4962033;28;93362;-79
2022/01/14 14:59:17;;;;;;;37.55;23.98;;;4.50;99.90;;;;;;4966233;28;91648;-75
2022/01/14 15:01:44;;;;;;;34.78;22.55;;;4.40;99.90;;;;;;4965287;28;89501;-74
2022/01/14 15:04:10;;;;;;;35.75;22.70;;;4.30;99.90;;;;;;4963820;28;89225;-74
2022/01/14 15:06:35;;;;;;;41.85;24.00;;;4.20;99.90;;;;;;4967193;28;89794;-74
2022/01/14 15:09:02;;;;;;;36.88;24.30;;;4.10;99.90;;;;;;4963971;28;92197;-74
2022/01/14 15:11:27;;;;;;;36.72;23.52;;;3.90;99.90;;;;;;4968728;28;89485;-74
2022/01/14 15:13:53;;;;;;;38.50;23.75;;;3.80;99.90;;;;;;4971208;28;90369;-75
2022/01/14 15:19:10;;;;;;;37.88;24.50;;;3.60;99.90;;;;;;4960676;28;89378;-79
2022/01/14 15:21:35;;;;;;;36.65;23.77;;;3.40;99.90;;;;;;4977311;28;91237;-80
2022/01/14 15:24:01;;;;;;;42.03;24.13;;;3.20;99.90;;;;;;4972322;28;89188;-79
2022/01/14 15:26:27;;;;;;;40.88;23.48;;;3.00;99.90;;;;;;4975427;28;92638;-81
2022/01/14 15:28:52;;;;;;;37.00;24.58;;;2.90;99.90;;;;;;4972492;28;91680;-78
2022/01/14 15:31:18;;;;;;;38.20;23.13;;;2.80;99.90;;;;;;4957230;28;90894;-77
2022/01/14 15:33:43;;;;;;;35.40;22.42;;;2.70;99.90;;;;;;4955695;28;89368;-77
2022/01/14 15:36:09;;;;;;;42.28;25.17;;;2.60;99.90;;;;;;4959850;28;91374;-79
2022/01/14 15:38:34;;;;;;;41.53;24.55;;;2.40;99.90;;;;;;4958623;28;92316;-78
2022/01/14 15:41:02;;;;;;;37.70;24.45;;;2.30;99.90;;;;;;4961418;28;89870;-81
2022/01/14 15:43:29;;;;;;;38.17;24.13;;;2.10;99.90;;;;;;4962017;28;89404;-78
2022/01/14 15:45:55;;;;;;;39.40;25.05;;;2.00;99.90;;;;;;4963506;28;90210;-79
2022/01/14 15:48:21;;;;;;;36.72;23.45;;;1.90;99.90;;;;;;4966366;28;89195;-80
2022/01/14 15:50:48;;;;;;;41.50;24.63;;;1.70;99.90;;;;;;4966471;28;89574;-80
2022/01/14 15:53:14;;;;;;;42.35;25.25;;;1.50;99.90;;;;;;4965373;28;89330;-80
2022/01/14 15:55:41;;;;;;;42.90;27.55;;;1.40;99.90;;;;;;4965822;28;90070;-80
2022/01/14 15:58:07;;;;;;;41.40;25.65;;;1.30;99.90;;;;;;4966189;28;90213;-80
2022/01/14 16:00:32;;;;;;;43.78;26.48;;;1.10;99.90;;;;;;4963249;28;92934;-80
2022/01/14 16:02:58;;;;;;;37.15;25.15;;;1.00;99.90;;;;;;4963194;28;90237;-80
2022/01/14 16:05:24;;;;;;;45.33;27.92;;;0.90;99.90;;;;;;4962526;28;91904;-86
2022/01/14 16:07:50;;;;;;;42.05;26.17;;;0.80;99.90;;;;;;4965694;28;89473;-80
2022/01/14 16:10:16;;;;;;;45.00;26.92;;;0.70;99.90;;;;;;4962685;28;91790;-80
2022/01/14 16:12:46;;;;;;;42.95;26.10;;;0.60;99.90;;;;;;4964378;28;89387;-80
2022/01/14 16:15:12;;;;;;;42.75;26.00;;;0.50;99.90;;;;;;4962478;28;92956;-80
2022/01/14 16:17:41;;;;;;;44.05;26.70;;;0.40;99.90;;;;;;4965465;28;90128;-80
2022/01/14 16:20:10;;;;;;;51.03;31.52;;;0.30;99.90;;;;;;4963084;28;92487;-80
2022/01/14 16:22:35;;;;;;;47.65;28.33;;;0.20;99.90;;;;;;4963425;28;89216;-80
2022/01/14 16:25:01;;;;;;;45.65;27.33;;;0.20;99.90;;;;;;4964329;28;89365;-80
2022/01/14 16:27:26;;;;;;;44.75;27.17;;;0.10;99.90;;;;;;4963153;28;92574;-80
2022/01/14 16:29:54;;;;;;;44.35;27.58;;;0.10;99.90;;;;;;4965063;28;91238;-80
2022/01/14 16:32:21;;;;;;;44.50;27.30;;;0.00;99.90;;;;;;4963463;28;89679;-80
2022/01/14 16:34:48;;;;;;;46.67;28.38;;;-0.10;99.90;;;;;;4962421;28;91048;-79
2022/01/14 16:37:17;;;;;;;50.28;28.63;;;-0.20;99.90;;;;;;4964942;28;90364;-80
2022/01/14 16:39:44;;;;;;;45.78;27.75;;;-0.30;99.90;;;;;;4964580;28;92449;-80
2022/01/14 16:42:10;;;;;;;48.05;29.25;;;-0.30;99.90;;;;;;4963877;28;89303;-80
2022/01/14 16:44:48;;;;;;;48.20;28.52;;;-0.40;99.90;;;;;;4963226;28;91178;-80
2022/01/14 16:47:14;;;;;;;49.47;28.30;;;-0.40;99.90;;;;;;4961521;28;92473;-80
2022/01/14 16:49:40;;;;;;;48.47;28.42;;;-0.50;99.90;;;;;;4962636;28;93188;-80
2022/01/14 16:52:07;;;;;;;48.40;28.77;;;-0.40;99.90;;;;;;4962943;28;90291;-80
2022/01/14 16:54:33;;;;;;;53.72;31.10;;;-0.50;99.90;;;;;;4962373;28;92645;-80
2022/01/14 16:56:59;;;;;;;50.67;30.08;;;-0.60;99.90;;;;;;4965312;28;89194;-80
2022/01/14 16:59:25;;;;;;;49.65;28.35;;;-0.60;99.90;;;;;;4964628;28;91319;-79
2022/01/14 17:01:51;;;;;;;49.90;27.73;;;-0.60;99.90;;;;;;4964761;28;89313;-79
2022/01/14 17:04:17;;;;;;;45.60;27.00;;;-0.70;99.90;;;;;;4964443;28;91184;-79
2022/01/14 17:06:43;;;;;;;48.25;27.90;;;-0.70;99.90;;;;;;4963324;28;93136;-80
2022/01/14 17:09:08;;;;;;;49.95;29.55;;;-0.80;99.90;;;;;;4963486;28;91596;-80
2022/01/14 17:11:37;;;;;;;57.72;32.20;;;-0.80;99.90;;;;;;4965416;28;89253;-80
2022/01/14 17:14:04;;;;;;;75.68;40.80;;;-0.90;99.90;;;;;;4990517;22;89838;-77
2022/01/14 17:16:30;;;;;;;63.90;38.13;;;-0.90;99.90;;;;;;4996109;28;92992;-77
2022/01/14 17:18:55;;;;;;;67.88;37.95;;;-1.00;99.90;;;;;;4999543;28;90827;-78
2022/01/14 17:21:21;;;;;;;64.47;37.55;;;-1.00;99.90;;;;;;4998689;28;89209;-78
2022/01/14 17:23:47;;;;;;;62.55;37.17;;;-1.00;99.90;;;;;;4999187;28;91624;-78
2022/01/14 17:26:12;;;;;;;64.93;38.25;;;-1.10;99.90;;;;;;4998614;28;90007;-79
2022/01/14 17:28:40;;;;;;;67.57;38.13;;;-1.20;99.90;;;;;;4999190;28;89151;-78
2022/01/14 17:31:07;;;;;;;68.45;38.35;;;-1.20;99.90;;;;;;4999129;28;89804;-79
2022/01/14 17:33:33;;;;;;;60.88;36.80;;;-1.30;99.90;;;;;;4997807;28;92928;-78
2022/01/14 17:35:59;;;;;;;56.28;34.30;;;-1.30;99.90;;;;;;5001503;28;89732;-78
2022/01/14 17:38:27;;;;;;;58.58;35.10;;;-1.30;99.90;;;;;;5002222;28;89219;-79
2022/01/14 17:40:59;;;;;;;59.55;34.33;;;-1.30;99.90;;;;;;4999143;28;90142;-79
2022/01/14 17:43:27;;;;;;;57.03;34.53;;;-1.40;99.90;;;;;;4999176;28;89924;-78
2022/01/14 17:45:55;;;;;;;54.33;33.22;;;-1.40;99.90;;;;;;4999081;28;90415;-78
2022/01/14 17:48:21;;;;;;;55.15;32.55;;;-1.40;99.90;;;;;;4997718;28;92532;-78
2022/01/14 17:50:50;;;;;;;53.80;32.60;;;-1.30;99.90;;;;;;4998160;28;89376;-79
2022/01/14 17:53:20;;;;;;;51.95;31.55;;;-1.40;99.90;;;;;;5000433;28;92041;-79